Flight Track Log - Related Links

Times and Time Zones

All times are in EDT time to prevent confusion due to time zone crossing. See the SWA268 flight status page for this flight to view local times or setup timezone preferences in your user account.


Time Position Orientation Groundspeed Altitude Reporting Facility
EDT Latitude Longitude Course Direction KTS MPH feet Rate Location/Type
Sun 05:37:43 PM 26.0775 -80.1183 82° East 162 186 1,400  Level Miami Center
Sun 05:39:31 PM 26.1639 -80.0858 19° North 248 285 5,000 1,321 Climbing Miami Center
Sun 05:40:31 PM 26.2361 -80.1272 333° Northwest 256 295 5,100 1,650 Climbing Miami Center
Sun 05:41:31 PM 26.2550 -80.2133 284° West 238 274 8,300 1,950 Climbing Miami Center
Sun 05:42:31 PM 26.2633 -80.3017 276° West 256 295 9,000 400 Climbing Miami Center
Sun 05:43:31 PM 26.2736 -80.3992 277° West 291 335 9,100 50 Climbing Miami Center
Sun 05:44:31 PM 26.2819 -80.4783 277° West 291 335 9,100 1,250 Level Miami Center
Sun 05:45:31 PM 26.3025 -80.5786 283° West 296 341 11,600 2,600 Climbing Miami Center
Sun 05:46:31 PM 26.3550 -80.6475 310° West 311 358 14,300 2,750 Climbing Miami Center
Sun 05:47:31 PM 26.4342 -80.7333 316° Northwest 346 398 17,100 2,900 Climbing Miami Center
Sun 05:48:31 PM 26.5200 -80.8058 323° Northwest 373 429 20,100 2,450 Climbing Miami Center
Sun 05:49:31 PM 26.6056 -80.8808 322° Northwest 386 444 22,000 450 Climbing Miami Center
Sun 05:50:31 PM 26.6953 -80.9583 322° Northwest 393 452 21,000 -1,000 Descending Miami Center
Sun 05:51:31 PM 26.7744 -81.0400 317° Northwest 386 444 20,000 -500 Descending Miami Center
Sun 05:52:31 PM 26.8197 -81.1300 299° West 380 437 20,000  Level Miami Center
Sun 05:53:31 PM 26.8647 -81.2364 295° West 380 437 20,000  Level Miami Center
Sun 05:54:31 PM 26.9222 -81.3364 303° West 380 437 20,000  Level Miami Center
Sun 05:55:31 PM 26.9919 -81.4417 307° West 380 437 20,000  Level Miami Center
Sun 05:56:31 PM 27.0478 -81.5256 307° West 385 443 20,000  Level Miami Center
Sun 05:57:31 PM 27.1133 -81.6239 307° West 385 443 20,000  Level Miami Center
Sun 05:58:31 PM 27.1831 -81.7294 307° West 385 443 20,000 -950 Level Miami Center
Sun 05:59:31 PM 27.2486 -81.8256 308° West 393 452 18,100 -2,000 Descending Miami Center
Sun 06:00:31 PM 27.3039 -81.9119 306° West 400 460 16,000 -2,300 Descending Miami Center
Sun 06:01:31 PM 27.3697 -82.0061 308° West 388 447 13,500 -2,500 Descending Miami Center
Sun 06:02:31 PM 27.4289 -82.0997 305° West 383 441 11,000 -1,250 Descending Miami Center
Sun 06:03:31 PM 27.4925 -82.1822 311° West 364 419 11,000 -50 Level Miami Center
Sun 06:04:31 PM 27.5625 -82.2653 314° West 347 399 10,900 -550 Descending Miami Center
Sun 06:05:31 PM 27.6222 -82.3406 312° West 333 383 9,900 -1,150 Descending Miami Center
Sun 06:06:31 PM 27.6783 -82.4042 315° West 310 357 8,600 -1,403 Descending Miami Center
Sun 06:06:48 PM 27.7000 -82.4167 333° Northwest 299 344 8,100 -1,558 Descending Tampa TRACON
Sun 06:07:48 PM 27.7833 -82.4167 360° North 309 356 6,600 -1,400 Descending Tampa TRACON
Sun 06:08:48 PM 27.8667 -82.4167 360° North 301 346 5,300 -833 Descending Tampa TRACON
Sun 06:09:36 PM 27.9333 -82.4167 360° North 292 336 5,100 -684 Descending Tampa TRACON
Sun 06:10:42 PM 28.0167 -82.4167 360° North 281 323 4,000 -1,000 Descending Tampa TRACON
Sun 06:11:42 PM 28.1000 -82.4167 360° North 278 320 3,000 -700 Descending Tampa TRACON
Sun 06:12:42 PM 28.1167 -82.4833 286° West 212 244 2,600 -550 Descending Tampa TRACON
Sun 06:13:42 PM 28.0833 -82.5167 221° Southwest 174 200 1,900 -716 Descending Tampa TRACON
Sun 06:14:31 PM 28.0500 -82.5333 204° Southwest 156 180 1,300 -700 Descending Tampa TRACON
Sun 06:15:42 PM 28.0000 -82.5333 180° South 127 146 500 -676 Descending Tampa TRACON
Sun 06:17:00 PM 27.9755 -82.5332 190° South  Level Estimated
Sun 06:24:00 PM 27.9755 -82.5332 190° South  Level Estimated
Sun 06:25:00 PM 27.9755 -82.5332 190° South  Level Estimated

Login

Don't have an account? Register now (free) for customized features, flight alerts, and more!